createdAt,value
2022-12-08T00:00:10.466Z,6.30
2022-12-08T00:02:39.284Z,8.40
2022-12-08T00:05:28.061Z,9.68
2022-12-08T00:08:13.891Z,6.88
2022-12-08T00:10:49.611Z,6.28
2022-12-08T00:13:18.596Z,7.90
2022-12-08T00:15:47.139Z,7.80
2022-12-08T00:18:15.640Z,7.38
2022-12-08T00:20:45.545Z,9.20
2022-12-08T00:23:14.048Z,8.32
2022-12-08T00:25:42.595Z,6.30
2022-12-08T00:28:11.072Z,8.07
2022-12-08T00:30:40.831Z,7.18
2022-12-08T00:33:09.825Z,7.45
2022-12-08T00:35:42.905Z,7.03
2022-12-08T00:38:13.475Z,6.77
2022-12-08T00:40:45.347Z,6.85
2022-12-08T00:43:14.138Z,7.25
2022-12-08T00:45:42.931Z,7.05
2022-12-08T00:48:14.437Z,6.60
2022-12-08T00:50:43.202Z,7.20
2022-12-08T00:53:13.326Z,7.60
2022-12-08T00:55:46.485Z,8.30
2022-12-08T00:58:14.984Z,7.15
2022-12-08T01:00:44.649Z,7.80
2022-12-08T01:03:14.001Z,7.88
2022-12-08T01:05:42.507Z,8.20
2022-12-08T01:08:11.045Z,7.68
2022-12-08T01:10:41.074Z,7.53
2022-12-08T01:13:09.553Z,8.38
2022-12-08T01:15:38.594Z,7.72
2022-12-08T01:18:07.163Z,8.57
2022-12-08T01:20:35.650Z,8.05
2022-12-08T01:23:04.194Z,8.43
2022-12-08T01:25:35.012Z,8.45
2022-12-08T01:28:05.158Z,9.93
2022-12-08T01:30:33.694Z,9.05
2022-12-08T01:33:03.049Z,7.95
2022-12-08T01:35:31.580Z,7.78
2022-12-08T01:38:00.036Z,7.28
2022-12-08T01:40:28.553Z,7.80
2022-12-08T01:42:57.007Z,8.27
2022-12-08T01:45:29.859Z,7.85
2022-12-08T01:48:03.025Z,7.65
2022-12-08T01:50:32.434Z,7.13
2022-12-08T01:53:08.034Z,7.93
2022-12-08T01:55:42.673Z,6.60
2022-12-08T01:58:17.906Z,8.10
2022-12-08T02:00:48.911Z,7.32
2022-12-08T02:03:22.646Z,7.38
2022-12-08T02:05:52.617Z,8.30
2022-12-08T02:08:21.762Z,8.35
2022-12-08T02:10:51.022Z,7.97
2022-12-08T02:13:22.611Z,6.95
2022-12-08T02:16:01.701Z,8.45
2022-12-08T02:18:43.683Z,8.73
2022-12-08T02:21:18.241Z,9.13
2022-12-08T02:23:55.578Z,8.77
2022-12-08T02:26:45.683Z,9.93
2022-12-08T02:29:32.330Z,9.70
2022-12-08T02:32:19.680Z,9.35
2022-12-08T02:34:59.310Z,9.05
2022-12-08T02:37:33.119Z,8.23
2022-12-08T02:40:08.608Z,8.70
2022-12-08T02:42:42.644Z,8.63
2022-12-08T02:45:15.866Z,8.55
2022-12-08T02:47:45.228Z,7.43
2022-12-08T02:50:16.788Z,7.68
2022-12-08T02:52:47.666Z,7.07
2022-12-08T02:55:29.147Z,6.63
2022-12-08T02:58:25.323Z,6.57
2022-12-08T03:01:11.983Z,6.68
2022-12-08T03:03:48.591Z,6.07
2022-12-08T03:06:31.034Z,6.00
2022-12-08T03:09:04.815Z,6.30
2022-12-08T03:11:39.807Z,6.25
2022-12-08T03:14:17.748Z,6.15
2022-12-08T03:16:52.939Z,6.95
2022-12-08T03:19:25.398Z,5.70
2022-12-08T03:22:02.775Z,6.30
2022-12-08T03:24:33.706Z,5.95
2022-12-08T03:27:04.922Z,6.28
2022-12-08T03:29:34.157Z,5.38
2022-12-08T03:32:08.256Z,5.45
2022-12-08T03:34:38.281Z,6.07
2022-12-08T03:37:08.587Z,5.70
2022-12-08T03:39:37.093Z,5.97
2022-12-08T03:42:05.657Z,5.53
2022-12-08T03:44:34.126Z,6.05
2022-12-08T03:47:02.641Z,6.55
2022-12-08T03:49:31.133Z,6.00
2022-12-08T03:52:00.079Z,5.90
2022-12-08T03:54:30.002Z,6.72
2022-12-08T03:56:58.511Z,6.95
2022-12-08T03:59:26.977Z,8.18
2022-12-08T04:01:55.579Z,7.18
2022-12-08T04:04:24.199Z,7.65
2022-12-08T04:06:52.697Z,8.55
2022-12-08T04:09:21.272Z,9.48
2022-12-08T04:11:51.190Z,8.02
2022-12-08T04:14:19.686Z,8.80
2022-12-08T04:16:48.179Z,9.68
2022-12-08T04:19:16.690Z,8.70
2022-12-08T04:21:45.180Z,9.15
2022-12-08T04:24:13.704Z,9.10
2022-12-08T04:26:42.322Z,9.73
2022-12-08T04:29:12.222Z,9.50
2022-12-08T04:31:40.765Z,10.02
2022-12-08T04:34:09.993Z,9.65
2022-12-08T04:36:38.452Z,10.07
2022-12-08T04:39:06.964Z,8.93
2022-12-08T04:41:35.432Z,10.75
2022-12-08T04:44:03.959Z,10.55
2022-12-08T04:46:35.164Z,9.90
2022-12-08T04:49:05.293Z,10.73
2022-12-08T04:51:33.808Z,10.88
2022-12-08T04:54:02.359Z,10.77
2022-12-08T04:56:30.863Z,10.82
2022-12-08T04:58:59.388Z,11.18
2022-12-08T05:01:28.108Z,10.73
2022-12-08T05:03:58.246Z,11.48
2022-12-08T05:06:26.722Z,11.68
2022-12-08T05:08:55.319Z,10.80
2022-12-08T05:11:23.829Z,10.73
2022-12-08T05:13:52.330Z,10.88
2022-12-08T05:16:20.892Z,10.90
2022-12-08T05:18:49.381Z,10.95
2022-12-08T05:21:19.357Z,11.48
2022-12-08T05:23:47.832Z,11.25
2022-12-08T05:26:16.325Z,13.63
2022-12-08T05:28:44.875Z,12.70
2022-12-08T05:31:14.559Z,13.70
2022-12-08T05:33:43.531Z,12.88
2022-12-08T05:36:14.191Z,13.15
2022-12-08T05:38:46.535Z,12.02
2022-12-08T05:41:17.520Z,12.60
2022-12-08T05:43:46.355Z,12.38
2022-12-08T05:46:15.386Z,13.38
2022-12-08T05:48:44.215Z,12.90
2022-12-08T05:51:19.753Z,13.20
2022-12-08T05:53:51.157Z,12.93
2022-12-08T05:56:20.296Z,12.50
2022-12-08T05:58:48.866Z,13.57
2022-12-08T06:01:22.561Z,14.13
2022-12-08T06:03:51.512Z,13.10
2022-12-08T06:06:20.476Z,15.13
2022-12-08T06:08:50.511Z,15.07
2022-12-08T06:11:20.550Z,13.75
2022-12-08T06:13:49.677Z,13.88
2022-12-08T06:16:19.242Z,14.30
2022-12-08T06:18:48.511Z,14.18
2022-12-08T06:21:17.951Z,14.82
2022-12-08T06:23:50.798Z,13.15
2022-12-08T06:26:20.507Z,14.05
2022-12-08T06:28:50.019Z,14.73
2022-12-08T06:31:19.985Z,14.15
2022-12-08T06:33:49.518Z,12.93
2022-12-08T06:36:19.454Z,13.00
2022-12-08T06:38:48.334Z,13.40
2022-12-08T06:41:18.819Z,12.73
2022-12-08T06:43:47.542Z,13.13
2022-12-08T06:46:19.255Z,13.20
2022-12-08T06:48:48.959Z,13.15
2022-12-08T06:51:19.667Z,12.52
2022-12-08T06:53:48.391Z,12.85
2022-12-08T06:56:20.165Z,12.80
2022-12-08T06:58:52.435Z,12.70
2022-12-08T07:01:21.810Z,13.07
2022-12-08T07:03:50.325Z,14.50
2022-12-08T07:06:21.759Z,13.38
2022-12-08T07:08:50.323Z,14.15
2022-12-08T07:11:22.393Z,15.55
2022-12-08T07:13:51.818Z,14.55
2022-12-08T07:16:20.728Z,13.55
2022-12-08T07:18:49.421Z,13.82
2022-12-08T07:21:19.037Z,14.07
2022-12-08T07:23:54.305Z,15.05
2022-12-08T07:26:27.924Z,14.95
2022-12-08T07:28:56.640Z,13.30
2022-12-08T07:31:26.741Z,18.08
2022-12-08T07:33:55.986Z,14.65
2022-12-08T07:36:25.366Z,13.38
2022-12-08T07:38:54.575Z,14.63
2022-12-08T07:41:25.512Z,14.30
2022-12-08T07:43:56.668Z,13.00
2022-12-08T07:46:26.846Z,12.25
2022-12-08T07:48:57.383Z,13.43
2022-12-08T07:51:26.181Z,13.70
2022-12-08T07:53:55.357Z,13.48
2022-12-08T07:56:24.162Z,12.43
2022-12-08T07:58:52.793Z,13.00
2022-12-08T08:01:25.472Z,12.35
2022-12-08T08:03:55.912Z,12.63
2022-12-08T08:06:25.232Z,13.93
2022-12-08T08:08:53.808Z,14.20
2022-12-08T08:11:22.576Z,12.95
2022-12-08T08:13:51.593Z,12.73
2022-12-08T08:16:20.926Z,13.07
2022-12-08T08:18:52.043Z,13.43
2022-12-08T08:21:44.531Z,13.05
2022-12-08T08:24:10.413Z,12.63
2022-12-08T08:26:39.261Z,14.65
2022-12-08T08:29:07.860Z,12.82
2022-12-08T08:31:36.390Z,12.63
2022-12-08T08:34:06.581Z,13.40
2022-12-08T08:36:35.423Z,14.52
2022-12-08T08:39:04.339Z,15.02
2022-12-08T08:41:32.900Z,14.05
2022-12-08T08:44:01.556Z,13.07
2022-12-08T08:46:30.107Z,12.70
2022-12-08T08:48:58.759Z,13.10
2022-12-08T08:51:28.711Z,12.93
2022-12-08T08:53:57.786Z,12.98
2022-12-08T08:56:26.860Z,13.10
2022-12-08T08:58:55.405Z,13.32
2022-12-08T09:01:25.719Z,14.05
2022-12-08T09:03:55.161Z,14.65
2022-12-08T09:06:24.237Z,13.73
2022-12-08T09:08:54.238Z,14.40
2022-12-08T09:11:23.547Z,14.23
2022-12-08T09:13:53.258Z,13.00
2022-12-08T09:16:23.252Z,13.18
2022-12-08T09:18:52.040Z,13.60
2022-12-08T09:21:23.724Z,15.30
2022-12-08T09:23:55.851Z,14.35
2022-12-08T09:26:24.970Z,14.23
2022-12-08T09:28:55.107Z,15.57
2022-12-08T09:31:25.771Z,14.73
2022-12-08T09:33:54.372Z,14.68
2022-12-08T09:36:23.150Z,14.63
2022-12-08T09:38:53.747Z,12.45
2022-12-08T09:41:38.899Z,14.77
2022-12-08T09:44:33.719Z,14.43
2022-12-08T09:47:06.473Z,13.75
2022-12-08T09:49:40.960Z,14.95
2022-12-08T09:54:46.332Z,14.23
2022-12-08T09:57:20.541Z,13.70
2022-12-08T09:59:55.260Z,13.70
2022-12-08T10:02:26.300Z,14.05
2022-12-08T10:04:57.699Z,14.18
2022-12-08T10:07:35.457Z,13.63
2022-12-08T10:10:16.323Z,14.48
2022-12-08T10:12:52.447Z,14.25
2022-12-08T10:15:36.920Z,14.63
2022-12-08T10:18:13.187Z,14.13
2022-12-08T10:20:44.107Z,13.95
2022-12-08T10:23:22.376Z,12.80
2022-12-08T10:25:54.595Z,13.00
2022-12-08T10:28:24.542Z,13.00
2022-12-08T10:30:53.157Z,12.02
2022-12-08T10:33:23.831Z,12.82
2022-12-08T10:35:58.494Z,11.77
2022-12-08T10:38:31.035Z,12.73
2022-12-08T10:41:05.673Z,13.27
2022-12-08T10:43:37.806Z,12.32
2022-12-08T10:46:12.042Z,12.30
2022-12-08T10:48:50.416Z,12.85
2022-12-08T10:51:41.168Z,11.93
2022-12-08T10:54:29.276Z,12.68
2022-12-08T10:56:58.636Z,11.90
2022-12-08T10:59:29.296Z,13.75
2022-12-08T11:01:58.623Z,13.25
2022-12-08T11:04:35.869Z,11.90
2022-12-08T11:07:06.683Z,10.88
2022-12-08T11:09:40.442Z,10.82
2022-12-08T11:12:13.830Z,11.10
2022-12-08T11:14:59.073Z,10.65
2022-12-08T11:17:28.743Z,11.45
2022-12-08T11:19:59.696Z,10.48
2022-12-08T11:22:32.300Z,10.70
2022-12-08T11:25:11.643Z,9.90
2022-12-08T11:27:43.550Z,10.50
2022-12-08T11:30:18.591Z,10.07
2022-12-08T11:32:50.329Z,10.10
2022-12-08T11:35:27.897Z,10.55
2022-12-08T11:38:19.890Z,10.35
2022-12-08T11:40:51.935Z,11.73
2022-12-08T11:43:28.372Z,10.98
2022-12-08T11:46:02.880Z,11.02
2022-12-08T11:48:38.911Z,11.20
2022-12-08T11:51:12.518Z,10.13
2022-12-08T11:53:48.523Z,10.77
2022-12-08T11:56:21.327Z,10.75
2022-12-08T11:58:53.231Z,11.40
2022-12-08T12:01:25.133Z,11.75
2022-12-08T12:04:01.134Z,11.63
2022-12-08T12:06:59.413Z,10.50
2022-12-08T12:09:40.246Z,13.52
2022-12-08T12:12:21.786Z,11.02
2022-12-08T12:15:25.408Z,10.65
2022-12-08T12:18:00.645Z,8.93
2022-12-08T12:20:32.758Z,9.40
2022-12-08T12:23:06.075Z,10.18
2022-12-08T12:25:37.253Z,9.73
2022-12-08T12:28:08.886Z,11.52
2022-12-08T12:30:53.578Z,9.85
2022-12-08T12:35:54.050Z,8.82
2022-12-08T12:38:44.004Z,9.43
2022-12-08T12:41:14.826Z,9.65
2022-12-08T12:44:22.833Z,9.68
2022-12-08T12:46:59.949Z,10.30
2022-12-08T12:50:09.794Z,9.93
2022-12-08T12:52:42.933Z,9.45
2022-12-08T12:55:54.847Z,10.48
2022-12-08T12:58:41.134Z,10.43
2022-12-08T13:01:51.901Z,11.10
2022-12-08T13:04:21.230Z,9.73
2022-12-08T13:06:52.300Z,11.48
2022-12-08T13:09:31.534Z,10.75
2022-12-08T13:12:02.638Z,12.23
2022-12-08T13:14:35.178Z,13.15
2022-12-08T13:17:08.721Z,15.27
2022-12-08T13:19:39.996Z,11.73
2022-12-08T13:22:57.287Z,10.48
2022-12-08T13:26:09.206Z,10.90
2022-12-08T13:29:06.204Z,10.30
2022-12-08T13:31:42.573Z,10.57
2022-12-08T13:34:18.210Z,13.13
2022-12-08T13:36:56.399Z,18.00
2022-12-08T13:39:29.539Z,16.15
2022-12-08T13:42:06.890Z,12.73
2022-12-08T13:47:34.744Z,12.70
2022-12-08T13:51:07.004Z,14.68
2022-12-08T13:58:41.160Z,10.52
2022-12-08T14:01:14.925Z,12.20
2022-12-08T14:04:20.445Z,12.52
2022-12-08T14:06:43.724Z,11.45
2022-12-08T14:09:16.149Z,11.27
2022-12-08T14:11:48.898Z,11.07
2022-12-08T14:14:45.955Z,12.27
2022-12-08T14:17:18.706Z,11.68
2022-12-08T14:19:58.740Z,11.05
2022-12-08T14:22:34.404Z,11.50
2022-12-08T14:25:03.834Z,10.77
2022-12-08T14:27:35.797Z,11.07
2022-12-08T14:30:21.541Z,10.85
2022-12-08T14:32:58.057Z,11.60
2022-12-08T14:35:32.870Z,11.10
2022-12-08T14:40:36.848Z,11.13
2022-12-08T14:43:16.744Z,14.35
2022-12-08T14:45:53.441Z,9.43
2022-12-08T14:48:24.370Z,12.05
2022-12-08T14:51:01.858Z,12.45
2022-12-08T14:53:37.700Z,12.32
2022-12-08T14:56:10.086Z,9.68
2022-12-08T14:58:38.747Z,9.18
2022-12-08T15:01:10.481Z,8.27
2022-12-08T15:03:39.488Z,9.13
2022-12-08T15:06:10.348Z,8.60
2022-12-08T15:08:55.961Z,8.32
2022-12-08T15:11:54.686Z,8.35
2022-12-08T15:14:39.115Z,8.13
2022-12-08T15:17:43.305Z,8.50
2022-12-08T15:23:05.446Z,8.15
2022-12-08T15:25:35.293Z,9.07
2022-12-08T15:28:04.351Z,8.45
2022-12-08T15:30:33.419Z,8.98
2022-12-08T15:33:02.005Z,9.95
2022-12-08T15:35:31.451Z,11.35
2022-12-08T15:38:01.336Z,12.55
2022-12-08T15:40:31.474Z,12.38
2022-12-08T15:43:00.261Z,10.30
2022-12-08T15:45:32.029Z,9.80
2022-12-08T15:48:00.540Z,12.02
2022-12-08T15:50:29.188Z,13.13
2022-12-08T15:52:57.919Z,11.95
2022-12-08T15:55:26.483Z,12.55
2022-12-08T16:00:54.202Z,14.70
2022-12-08T16:04:09.373Z,17.27
2022-12-08T16:09:16.895Z,25.88
2022-12-08T16:12:07.134Z,22.27
2022-12-08T16:17:28.365Z,15.57
2022-12-08T16:19:56.946Z,12.80
2022-12-08T16:22:52.867Z,21.23
2022-12-08T16:25:19.221Z,20.45
2022-12-08T16:30:40.314Z,13.18
2022-12-08T16:33:08.939Z,11.23
2022-12-08T16:35:37.473Z,12.38
2022-12-08T16:38:06.035Z,12.93
2022-12-08T16:40:55.842Z,16.23
2022-12-08T16:43:23.351Z,10.85
2022-12-08T16:45:53.299Z,11.13
2022-12-08T16:48:22.569Z,18.55
2022-12-08T16:50:51.247Z,15.95
2022-12-08T16:53:19.749Z,12.27
2022-12-08T16:55:49.094Z,10.35
2022-12-08T16:58:19.467Z,8.80
2022-12-08T17:00:48.274Z,10.27
2022-12-08T17:03:18.541Z,9.40
2022-12-08T17:05:47.066Z,12.70
2022-12-08T17:08:15.680Z,10.23
2022-12-08T17:10:44.240Z,8.95
2022-12-08T17:13:13.183Z,8.80
2022-12-08T17:15:41.692Z,14.13
2022-12-08T17:18:10.170Z,25.30
2022-12-08T17:20:40.716Z,14.48
2022-12-08T17:23:09.256Z,16.52
2022-12-08T17:25:38.024Z,18.63
2022-12-08T17:28:06.614Z,13.63
2022-12-08T17:30:35.180Z,19.95
2022-12-08T17:33:03.776Z,17.92
2022-12-08T17:35:32.308Z,22.35
2022-12-08T17:38:02.237Z,18.52
2022-12-08T17:40:30.778Z,16.27
2022-12-08T17:42:59.242Z,25.55
2022-12-08T17:45:32.715Z,18.80
2022-12-08T17:48:01.238Z,30.40
2022-12-08T17:50:29.779Z,12.80
2022-12-08T17:52:58.571Z,14.63
2022-12-08T17:55:28.497Z,14.65
2022-12-08T17:57:57.000Z,13.45
2022-12-08T18:00:25.714Z,14.10
2022-12-08T18:02:54.508Z,12.13
2022-12-08T18:05:23.277Z,15.57
2022-12-08T18:07:52.492Z,28.45
2022-12-08T18:10:21.230Z,21.70
2022-12-08T18:12:51.101Z,23.10
2022-12-08T18:15:20.599Z,31.95
2022-12-08T18:17:49.172Z,28.67
2022-12-08T18:20:17.880Z,29.75
2022-12-08T18:22:46.406Z,22.23
2022-12-08T18:25:15.913Z,23.90
2022-12-08T18:27:44.578Z,22.48
2022-12-08T18:30:18.309Z,36.28
2022-12-08T18:32:47.450Z,27.17
2022-12-08T18:35:16.008Z,21.00
2022-12-08T18:37:44.569Z,16.35
2022-12-08T18:40:14.141Z,17.70
2022-12-08T18:42:42.769Z,17.42
2022-12-08T18:45:12.213Z,16.38
2022-12-08T18:47:42.127Z,14.82
2022-12-08T18:50:12.412Z,19.70
2022-12-08T18:52:40.943Z,10.50
2022-12-08T18:55:10.386Z,13.80
2022-12-08T18:57:40.017Z,15.25
2022-12-08T19:00:12.137Z,14.75
2022-12-08T19:02:42.809Z,16.35
2022-12-08T19:05:13.466Z,14.63
2022-12-08T19:07:43.727Z,32.60
2022-12-08T19:10:13.398Z,27.23
2022-12-08T19:12:42.505Z,18.98
2022-12-08T19:15:11.886Z,17.20
2022-12-08T19:17:41.863Z,13.73
2022-12-08T19:20:11.530Z,15.10
2022-12-08T19:22:40.087Z,11.15
2022-12-08T19:25:09.339Z,12.00
2022-12-08T19:27:37.902Z,10.70
2022-12-08T19:30:08.220Z,12.15
2022-12-08T19:32:36.887Z,10.85
2022-12-08T19:35:07.630Z,9.90
2022-12-08T19:37:36.267Z,10.52
2022-12-08T19:40:28.211Z,9.73
2022-12-08T19:43:14.399Z,9.60
2022-12-08T19:45:43.033Z,9.23
2022-12-08T19:48:14.138Z,7.97
2022-12-08T19:50:44.087Z,7.80
2022-12-08T19:53:14.546Z,7.50
2022-12-08T19:55:43.726Z,7.57
2022-12-08T19:58:12.569Z,7.05
2022-12-08T20:00:42.266Z,6.57
2022-12-08T20:03:15.249Z,8.68
2022-12-08T20:05:46.770Z,7.25
2022-12-08T20:08:15.800Z,6.90
2022-12-08T20:10:45.718Z,6.63
2022-12-08T20:13:46.366Z,6.88
2022-12-08T20:16:15.768Z,6.43
2022-12-08T20:18:45.998Z,7.30
2022-12-08T20:21:15.873Z,7.30
2022-12-08T20:23:45.562Z,7.78
2022-12-08T20:26:14.509Z,6.97
2022-12-08T20:28:43.478Z,7.38
2022-12-08T20:31:18.911Z,9.10
2022-12-08T20:33:48.307Z,6.70
2022-12-08T20:36:19.904Z,7.15
2022-12-08T20:38:49.672Z,6.75
2022-12-08T20:41:19.221Z,6.97
2022-12-08T20:43:54.803Z,7.10
2022-12-08T20:46:32.869Z,6.85
2022-12-08T20:49:03.974Z,12.68
2022-12-08T20:51:37.799Z,7.85
2022-12-08T20:54:06.418Z,7.40
2022-12-08T20:56:35.049Z,7.60
2022-12-08T20:59:03.656Z,6.20
2022-12-08T21:01:32.493Z,6.97
2022-12-08T21:04:02.117Z,7.10
2022-12-08T21:06:31.042Z,7.43
2022-12-08T21:09:01.091Z,7.28
2022-12-08T21:11:29.775Z,7.82
2022-12-08T21:13:58.299Z,7.03
2022-12-08T21:16:27.075Z,8.45
2022-12-08T21:18:55.672Z,8.20
2022-12-08T21:21:24.764Z,7.85
2022-12-08T21:23:53.582Z,9.45
2022-12-08T21:26:26.031Z,7.55
2022-12-08T21:28:55.914Z,8.13
2022-12-08T21:31:26.416Z,7.53
2022-12-08T21:33:55.322Z,7.18
2022-12-08T21:36:24.231Z,7.72
2022-12-08T21:38:54.626Z,7.38
2022-12-08T21:41:39.073Z,7.03
2022-12-08T21:44:09.988Z,6.70
2022-12-08T21:46:39.587Z,7.90
2022-12-08T21:49:08.467Z,7.70
2022-12-08T21:51:41.776Z,7.70
2022-12-08T21:54:15.001Z,7.78
2022-12-08T21:56:50.414Z,7.55
2022-12-08T21:59:19.807Z,6.55
2022-12-08T22:01:48.684Z,7.55
2022-12-08T22:04:19.021Z,6.47
2022-12-08T22:06:48.092Z,7.07
2022-12-08T22:09:16.929Z,8.48
2022-12-08T22:11:45.906Z,7.50
2022-12-08T22:14:15.956Z,8.60
2022-12-08T22:16:45.287Z,7.43
2022-12-08T22:19:13.942Z,9.43
2022-12-08T22:21:42.581Z,7.43
2022-12-08T22:24:11.165Z,7.72
2022-12-08T22:26:39.760Z,7.93
2022-12-08T22:29:08.473Z,6.93
2022-12-08T22:31:38.685Z,7.30
2022-12-08T22:34:07.483Z,8.07
2022-12-08T22:36:36.531Z,7.55
2022-12-08T22:39:05.895Z,7.38
2022-12-08T22:41:34.473Z,7.45
2022-12-08T22:44:06.051Z,8.27
2022-12-08T22:46:34.933Z,7.07
2022-12-08T22:49:05.148Z,7.60
2022-12-08T22:51:36.796Z,7.90
2022-12-08T22:54:05.612Z,8.27
2022-12-08T22:56:34.461Z,7.55
2022-12-08T22:59:03.130Z,8.13
2022-12-08T23:01:33.668Z,8.40
2022-12-08T23:04:04.843Z,7.82
2022-12-08T23:06:33.952Z,9.15
2022-12-08T23:09:02.730Z,9.45
2022-12-08T23:11:32.791Z,8.40
2022-12-08T23:14:01.793Z,9.10
2022-12-08T23:16:31.416Z,9.13
2022-12-08T23:19:00.375Z,9.35
2022-12-08T23:21:30.751Z,8.60
2022-12-08T23:24:00.973Z,9.15
2022-12-08T23:26:31.715Z,8.82
2022-12-08T23:29:00.739Z,9.25
2022-12-08T23:31:29.823Z,9.50
2022-12-08T23:33:58.768Z,10.13
2022-12-08T23:36:27.463Z,10.48
2022-12-08T23:38:57.369Z,10.95
2022-12-08T23:41:26.006Z,11.45
2022-12-08T23:43:54.597Z,9.93
2022-12-08T23:46:24.241Z,9.40
2022-12-08T23:48:52.909Z,10.55
2022-12-08T23:51:21.612Z,11.18
2022-12-08T23:53:50.939Z,11.25
2022-12-08T23:56:26.972Z,10.88
2022-12-08T23:58:58.524Z,10.77
